sensor_id;sensor_type;location;lat;lon;timestamp;temperature;humidity
9125;DHT22;4597;48.730;9.114;2023-02-21T00:02:14;5.00;99.90
9125;DHT22;4597;48.730;9.114;2023-02-21T00:04:58;4.90;99.90
9125;DHT22;4597;48.730;9.114;2023-02-21T00:07:43;4.90;99.90
9125;DHT22;4597;48.730;9.114;2023-02-21T00:10:27;4.90;99.90
9125;DHT22;4597;48.730;9.114;2023-02-21T00:13:11;4.90;99.90
9125;DHT22;4597;48.730;9.114;2023-02-21T00:15:55;4.90;99.90
9125;DHT22;4597;48.730;9.114;2023-02-21T00:18:39;4.90;99.90
9125;DHT22;4597;48.730;9.114;2023-02-21T00:21:26;4.80;99.90
9125;DHT22;4597;48.730;9.114;2023-02-21T00:24:15;4.70;99.90
9125;DHT22;4597;48.730;9.114;2023-02-21T00:27:00;4.70;99.90
9125;DHT22;4597;48.730;9.114;2023-02-21T00:29:46;4.70;99.90
9125;DHT22;4597;48.730;9.114;2023-02-21T00:32:31;4.70;99.90
9125;DHT22;4597;48.730;9.114;2023-02-21T00:35:15;4.70;99.90
9125;DHT22;4597;48.730;9.114;2023-02-21T00:37:59;4.60;99.90
9125;DHT22;4597;48.730;9.114;2023-02-21T00:40:43;4.60;99.90
9125;DHT22;4597;48.730;9.114;2023-02-21T00:43:28;4.60;99.90
9125;DHT22;4597;48.730;9.114;2023-02-21T00:46:12;4.50;99.90
9125;DHT22;4597;48.730;9.114;2023-02-21T00:48:56;4.40;99.90
9125;DHT22;4597;48.730;9.114;2023-02-21T00:51:40;4.40;99.90
9125;DHT22;4597;48.730;9.114;2023-02-21T00:54:24;4.40;99.90
9125;DHT22;4597;48.730;9.114;2023-02-21T00:57:08;4.50;99.90
9125;DHT22;4597;48.730;9.114;2023-02-21T00:59:52;4.50;99.90
9125;DHT22;4597;48.730;9.114;2023-02-21T01:02:36;4.60;99.90
9125;DHT22;4597;48.730;9.114;2023-02-21T01:05:20;4.70;99.90
9125;DHT22;4597;48.730;9.114;2023-02-21T01:08:04;4.70;99.90
9125;DHT22;4597;48.730;9.114;2023-02-21T01:10:48;4.80;99.90
9125;DHT22;4597;48.730;9.114;2023-02-21T01:13:32;4.80;99.90
9125;DHT22;4597;48.730;9.114;2023-02-21T01:16:16;4.80;99.90
9125;DHT22;4597;48.730;9.114;2023-02-21T01:19:00;4.80;99.90
9125;DHT22;4597;48.730;9.114;2023-02-21T01:21:44;4.70;99.90
9125;DHT22;4597;48.730;9.114;2023-02-21T01:24:28;4.60;99.90
9125;DHT22;4597;48.730;9.114;2023-02-21T01:27:13;4.50;99.90
9125;DHT22;4597;48.730;9.114;2023-02-21T01:29:57;4.50;99.90
9125;DHT22;4597;48.730;9.114;2023-02-21T01:32:41;4.50;99.90
9125;DHT22;4597;48.730;9.114;2023-02-21T01:35:25;4.50;99.90
9125;DHT22;4597;48.730;9.114;2023-02-21T01:38:09;4.40;99.90
9125;DHT22;4597;48.730;9.114;2023-02-21T01:40:52;4.30;99.90
9125;DHT22;4597;48.730;9.114;2023-02-21T01:43:37;4.30;99.90
9125;DHT22;4597;48.730;9.114;2023-02-21T01:46:20;4.30;99.90
9125;DHT22;4597;48.730;9.114;2023-02-21T01:49:17;4.30;99.90
9125;DHT22;4597;48.730;9.114;2023-02-21T01:52:03;4.30;99.90
9125;DHT22;4597;48.730;9.114;2023-02-21T01:54:51;4.30;99.90
9125;DHT22;4597;48.730;9.114;2023-02-21T01:57:35;4.20;99.90
9125;DHT22;4597;48.730;9.114;2023-02-21T02:00:20;4.20;99.90
9125;DHT22;4597;48.730;9.114;2023-02-21T02:03:07;4.20;99.90
9125;DHT22;4597;48.730;9.114;2023-02-21T02:06:00;4.10;99.90
9125;DHT22;4597;48.730;9.114;2023-02-21T02:08:45;4.10;99.90
9125;DHT22;4597;48.730;9.114;2023-02-21T02:12:02;4.10;99.90
9125;DHT22;4597;48.730;9.114;2023-02-21T02:15:20;4.00;99.90
9125;DHT22;4597;48.730;9.114;2023-02-21T02:18:24;4.00;99.90
9125;DHT22;4597;48.730;9.114;2023-02-21T02:27:04;3.80;99.90
9125;DHT22;4597;48.730;9.114;2023-02-21T02:30:05;3.80;99.90
9125;DHT22;4597;48.730;9.114;2023-02-21T02:33:12;3.60;99.90
9125;DHT22;4597;48.730;9.114;2023-02-21T02:36:05;3.70;99.90
9125;DHT22;4597;48.730;9.114;2023-02-21T02:39:04;3.60;99.90
9125;DHT22;4597;48.730;9.114;2023-02-21T02:41:34;3.60;99.90
9125;DHT22;4597;48.730;9.114;2023-02-21T02:44:36;3.60;99.90
9125;DHT22;4597;48.730;9.114;2023-02-21T02:47:04;3.60;99.90
9125;DHT22;4597;48.730;9.114;2023-02-21T02:49:33;3.60;99.90
9125;DHT22;4597;48.730;9.114;2023-02-21T02:52:06;3.50;99.90
9125;DHT22;4597;48.730;9.114;2023-02-21T02:54:32;3.60;99.90
9125;DHT22;4597;48.730;9.114;2023-02-21T02:56:58;3.60;99.90
9125;DHT22;4597;48.730;9.114;2023-02-21T02:59:27;3.50;99.90
9125;DHT22;4597;48.730;9.114;2023-02-21T03:04:53;3.50;99.90
9125;DHT22;4597;48.730;9.114;2023-02-21T03:07:33;3.40;99.90
9125;DHT22;4597;48.730;9.114;2023-02-21T03:10:22;3.30;99.90
9125;DHT22;4597;48.730;9.114;2023-02-21T03:15:21;3.20;99.90
9125;DHT22;4597;48.730;9.114;2023-02-21T03:18:02;3.20;99.90
9125;DHT22;4597;48.730;9.114;2023-02-21T03:20:32;3.20;99.90
9125;DHT22;4597;48.730;9.114;2023-02-21T03:22:59;3.20;99.90
9125;DHT22;4597;48.730;9.114;2023-02-21T03:25:28;3.20;99.90
9125;DHT22;4597;48.730;9.114;2023-02-21T03:27:56;3.20;99.90
9125;DHT22;4597;48.730;9.114;2023-02-21T03:30:23;3.20;99.90
9125;DHT22;4597;48.730;9.114;2023-02-21T03:32:51;3.20;99.90
9125;DHT22;4597;48.730;9.114;2023-02-21T03:35:18;3.20;99.90
9125;DHT22;4597;48.730;9.114;2023-02-21T03:37:48;3.20;99.90
9125;DHT22;4597;48.730;9.114;2023-02-21T03:40:19;3.20;99.90
9125;DHT22;4597;48.730;9.114;2023-02-21T03:42:45;3.20;99.90
9125;DHT22;4597;48.730;9.114;2023-02-21T03:45:10;3.20;99.90
9125;DHT22;4597;48.730;9.114;2023-02-21T03:47:36;3.10;99.90
9125;DHT22;4597;48.730;9.114;2023-02-21T03:50:01;3.10;99.90
9125;DHT22;4597;48.730;9.114;2023-02-21T03:52:29;3.10;99.90
9125;DHT22;4597;48.730;9.114;2023-02-21T03:54:55;3.10;99.90
9125;DHT22;4597;48.730;9.114;2023-02-21T03:57:20;3.10;99.90
9125;DHT22;4597;48.730;9.114;2023-02-21T03:59:46;3.00;99.90
9125;DHT22;4597;48.730;9.114;2023-02-21T04:02:11;3.00;99.90
9125;DHT22;4597;48.730;9.114;2023-02-21T04:04:37;3.00;99.90
9125;DHT22;4597;48.730;9.114;2023-02-21T04:07:02;3.00;99.90
9125;DHT22;4597;48.730;9.114;2023-02-21T04:09:28;3.00;99.90
9125;DHT22;4597;48.730;9.114;2023-02-21T04:11:53;2.90;99.90
9125;DHT22;4597;48.730;9.114;2023-02-21T04:14:19;2.90;99.90
9125;DHT22;4597;48.730;9.114;2023-02-21T04:16:44;2.90;99.90
9125;DHT22;4597;48.730;9.114;2023-02-21T04:19:10;3.00;99.90
9125;DHT22;4597;48.730;9.114;2023-02-21T04:21:35;3.00;99.90
9125;DHT22;4597;48.730;9.114;2023-02-21T04:24:01;3.00;99.90
9125;DHT22;4597;48.730;9.114;2023-02-21T04:26:27;3.00;99.90
9125;DHT22;4597;48.730;9.114;2023-02-21T04:28:54;3.00;99.90
9125;DHT22;4597;48.730;9.114;2023-02-21T04:31:21;2.90;99.90
9125;DHT22;4597;48.730;9.114;2023-02-21T04:33:47;2.90;99.90
9125;DHT22;4597;48.730;9.114;2023-02-21T04:36:13;2.90;99.90
9125;DHT22;4597;48.730;9.114;2023-02-21T04:38:38;2.80;99.90
9125;DHT22;4597;48.730;9.114;2023-02-21T04:41:04;2.80;99.90
9125;DHT22;4597;48.730;9.114;2023-02-21T04:43:30;2.80;99.90
9125;DHT22;4597;48.730;9.114;2023-02-21T04:45:55;2.80;99.90
9125;DHT22;4597;48.730;9.114;2023-02-21T04:48:21;2.80;99.90
9125;DHT22;4597;48.730;9.114;2023-02-21T04:50:47;2.70;99.90
9125;DHT22;4597;48.730;9.114;2023-02-21T04:53:12;2.70;99.90
9125;DHT22;4597;48.730;9.114;2023-02-21T04:55:38;2.70;99.90
9125;DHT22;4597;48.730;9.114;2023-02-21T04:58:04;2.70;99.90
9125;DHT22;4597;48.730;9.114;2023-02-21T05:00:29;2.70;99.90
9125;DHT22;4597;48.730;9.114;2023-02-21T05:02:55;2.70;99.90
9125;DHT22;4597;48.730;9.114;2023-02-21T05:05:20;2.60;99.90
9125;DHT22;4597;48.730;9.114;2023-02-21T05:07:46;2.60;99.90
9125;DHT22;4597;48.730;9.114;2023-02-21T05:10:13;2.60;99.90
9125;DHT22;4597;48.730;9.114;2023-02-21T05:12:39;2.50;99.90
9125;DHT22;4597;48.730;9.114;2023-02-21T05:15:05;2.50;99.90
9125;DHT22;4597;48.730;9.114;2023-02-21T05:17:31;2.50;99.90
9125;DHT22;4597;48.730;9.114;2023-02-21T05:19:57;2.60;99.90
9125;DHT22;4597;48.730;9.114;2023-02-21T05:22:22;2.50;99.90
9125;DHT22;4597;48.730;9.114;2023-02-21T05:24:48;2.50;99.90
9125;DHT22;4597;48.730;9.114;2023-02-21T05:27:16;2.50;99.90
9125;DHT22;4597;48.730;9.114;2023-02-21T05:29:49;2.60;99.90
9125;DHT22;4597;48.730;9.114;2023-02-21T05:32:16;2.60;99.90
9125;DHT22;4597;48.730;9.114;2023-02-21T05:34:42;2.60;99.90
9125;DHT22;4597;48.730;9.114;2023-02-21T05:37:15;2.50;99.90
9125;DHT22;4597;48.730;9.114;2023-02-21T05:39:42;2.50;99.90
9125;DHT22;4597;48.730;9.114;2023-02-21T05:42:08;2.50;99.90
9125;DHT22;4597;48.730;9.114;2023-02-21T05:44:33;2.50;99.90
9125;DHT22;4597;48.730;9.114;2023-02-21T05:46:59;2.40;99.90
9125;DHT22;4597;48.730;9.114;2023-02-21T05:49:26;2.40;99.90
9125;DHT22;4597;48.730;9.114;2023-02-21T05:51:52;2.40;99.90
9125;DHT22;4597;48.730;9.114;2023-02-21T05:54:19;2.40;99.90
9125;DHT22;4597;48.730;9.114;2023-02-21T05:56:46;2.40;99.90
9125;DHT22;4597;48.730;9.114;2023-02-21T05:59:13;2.40;99.90
9125;DHT22;4597;48.730;9.114;2023-02-21T06:01:39;2.30;99.90
9125;DHT22;4597;48.730;9.114;2023-02-21T06:04:05;2.30;99.90
9125;DHT22;4597;48.730;9.114;2023-02-21T06:06:35;2.30;99.90
9125;DHT22;4597;48.730;9.114;2023-02-21T06:09:01;2.30;99.90
9125;DHT22;4597;48.730;9.114;2023-02-21T06:11:28;2.10;99.90
9125;DHT22;4597;48.730;9.114;2023-02-21T06:13:57;1.80;99.90
9125;DHT22;4597;48.730;9.114;2023-02-21T06:16:23;1.90;99.90
9125;DHT22;4597;48.730;9.114;2023-02-21T06:18:53;2.00;99.90
9125;DHT22;4597;48.730;9.114;2023-02-21T06:21:19;2.00;99.90
9125;DHT22;4597;48.730;9.114;2023-02-21T06:23:45;1.90;99.90
9125;DHT22;4597;48.730;9.114;2023-02-21T06:26:11;1.90;99.90
9125;DHT22;4597;48.730;9.114;2023-02-21T06:28:37;1.90;99.90
9125;DHT22;4597;48.730;9.114;2023-02-21T06:31:03;2.10;99.90
9125;DHT22;4597;48.730;9.114;2023-02-21T06:33:29;2.10;99.90
9125;DHT22;4597;48.730;9.114;2023-02-21T06:35:54;2.20;99.90
9125;DHT22;4597;48.730;9.114;2023-02-21T06:38:20;2.30;99.90
9125;DHT22;4597;48.730;9.114;2023-02-21T06:40:45;2.30;99.90
9125;DHT22;4597;48.730;9.114;2023-02-21T06:43:11;2.30;99.90
9125;DHT22;4597;48.730;9.114;2023-02-21T06:45:36;2.30;99.90
9125;DHT22;4597;48.730;9.114;2023-02-21T06:48:02;2.30;99.90
9125;DHT22;4597;48.730;9.114;2023-02-21T06:50:28;2.20;99.90
9125;DHT22;4597;48.730;9.114;2023-02-21T06:52:53;2.30;99.90
9125;DHT22;4597;48.730;9.114;2023-02-21T06:55:20;2.20;99.90
9125;DHT22;4597;48.730;9.114;2023-02-21T06:57:46;2.30;99.90
9125;DHT22;4597;48.730;9.114;2023-02-21T07:00:12;2.20;99.90
9125;DHT22;4597;48.730;9.114;2023-02-21T07:02:38;2.30;99.90
9125;DHT22;4597;48.730;9.114;2023-02-21T07:05:04;2.30;99.90
9125;DHT22;4597;48.730;9.114;2023-02-21T07:07:30;2.30;99.90
9125;DHT22;4597;48.730;9.114;2023-02-21T07:09:55;2.20;99.90
9125;DHT22;4597;48.730;9.114;2023-02-21T07:12:21;2.20;99.90
9125;DHT22;4597;48.730;9.114;2023-02-21T07:14:46;2.30;99.90
9125;DHT22;4597;48.730;9.114;2023-02-21T07:17:12;2.20;99.90
9125;DHT22;4597;48.730;9.114;2023-02-21T07:19:38;2.30;99.90
9125;DHT22;4597;48.730;9.114;2023-02-21T07:22:03;2.30;99.90
9125;DHT22;4597;48.730;9.114;2023-02-21T07:24:29;2.30;99.90
9125;DHT22;4597;48.730;9.114;2023-02-21T07:26:54;2.30;99.90
9125;DHT22;4597;48.730;9.114;2023-02-21T07:29:20;2.40;99.90
9125;DHT22;4597;48.730;9.114;2023-02-21T07:31:46;2.40;99.90
9125;DHT22;4597;48.730;9.114;2023-02-21T07:34:11;2.50;99.90
9125;DHT22;4597;48.730;9.114;2023-02-21T07:36:37;2.50;99.90
9125;DHT22;4597;48.730;9.114;2023-02-21T07:39:03;2.50;99.90
9125;DHT22;4597;48.730;9.114;2023-02-21T07:41:29;2.50;99.90
9125;DHT22;4597;48.730;9.114;2023-02-21T07:43:54;2.40;99.90
9125;DHT22;4597;48.730;9.114;2023-02-21T07:46:20;2.40;99.90
9125;DHT22;4597;48.730;9.114;2023-02-21T07:48:45;2.50;99.90
9125;DHT22;4597;48.730;9.114;2023-02-21T07:51:11;2.50;99.90
9125;DHT22;4597;48.730;9.114;2023-02-21T07:53:36;2.60;99.90
9125;DHT22;4597;48.730;9.114;2023-02-21T07:56:03;2.70;99.90
9125;DHT22;4597;48.730;9.114;2023-02-21T07:58:28;2.80;99.90
9125;DHT22;4597;48.730;9.114;2023-02-21T08:00:54;2.90;99.90
9125;DHT22;4597;48.730;9.114;2023-02-21T08:03:20;2.90;99.90
9125;DHT22;4597;48.730;9.114;2023-02-21T08:05:46;3.00;99.90
9125;DHT22;4597;48.730;9.114;2023-02-21T08:08:13;3.10;99.90
9125;DHT22;4597;48.730;9.114;2023-02-21T08:10:39;3.20;99.90
9125;DHT22;4597;48.730;9.114;2023-02-21T08:13:04;3.30;99.90
9125;DHT22;4597;48.730;9.114;2023-02-21T08:15:30;3.40;99.90
9125;DHT22;4597;48.730;9.114;2023-02-21T08:17:55;3.50;99.90
9125;DHT22;4597;48.730;9.114;2023-02-21T08:20:21;3.50;99.90
9125;DHT22;4597;48.730;9.114;2023-02-21T08:22:47;3.60;99.90
9125;DHT22;4597;48.730;9.114;2023-02-21T08:25:14;3.70;99.90
9125;DHT22;4597;48.730;9.114;2023-02-21T08:27:41;3.80;99.90
9125;DHT22;4597;48.730;9.114;2023-02-21T08:30:08;3.90;99.90
9125;DHT22;4597;48.730;9.114;2023-02-21T08:32:35;3.90;99.90
9125;DHT22;4597;48.730;9.114;2023-02-21T08:35:01;4.00;99.90
9125;DHT22;4597;48.730;9.114;2023-02-21T08:37:28;4.10;99.90
9125;DHT22;4597;48.730;9.114;2023-02-21T08:39:58;4.20;99.90
9125;DHT22;4597;48.730;9.114;2023-02-21T08:42:24;4.20;99.90
9125;DHT22;4597;48.730;9.114;2023-02-21T08:44:50;4.30;99.90
9125;DHT22;4597;48.730;9.114;2023-02-21T08:47:16;4.40;99.90
9125;DHT22;4597;48.730;9.114;2023-02-21T08:49:45;4.40;99.90
9125;DHT22;4597;48.730;9.114;2023-02-21T08:52:12;4.50;99.90
9125;DHT22;4597;48.730;9.114;2023-02-21T08:54:39;4.60;99.90
9125;DHT22;4597;48.730;9.114;2023-02-21T08:57:04;4.70;99.90
9125;DHT22;4597;48.730;9.114;2023-02-21T08:59:30;4.70;99.90
9125;DHT22;4597;48.730;9.114;2023-02-21T09:01:58;4.80;99.90
9125;DHT22;4597;48.730;9.114;2023-02-21T09:04:24;4.80;99.90
9125;DHT22;4597;48.730;9.114;2023-02-21T09:06:52;4.90;99.90
9125;DHT22;4597;48.730;9.114;2023-02-21T09:09:17;5.00;99.90
9125;DHT22;4597;48.730;9.114;2023-02-21T09:11:43;5.00;99.90
9125;DHT22;4597;48.730;9.114;2023-02-21T09:14:11;5.10;99.90
9125;DHT22;4597;48.730;9.114;2023-02-21T09:16:37;5.20;99.90
9125;DHT22;4597;48.730;9.114;2023-02-21T09:19:02;5.30;99.90
9125;DHT22;4597;48.730;9.114;2023-02-21T09:21:31;5.50;99.90
9125;DHT22;4597;48.730;9.114;2023-02-21T09:23:57;5.60;99.90
9125;DHT22;4597;48.730;9.114;2023-02-21T09:26:24;5.70;99.90
9125;DHT22;4597;48.730;9.114;2023-02-21T09:28:50;5.70;99.90
9125;DHT22;4597;48.730;9.114;2023-02-21T09:31:17;5.80;99.90
9125;DHT22;4597;48.730;9.114;2023-02-21T09:33:44;6.00;99.90
9125;DHT22;4597;48.730;9.114;2023-02-21T09:36:10;6.10;99.90
9125;DHT22;4597;48.730;9.114;2023-02-21T09:38:36;6.20;99.90
9125;DHT22;4597;48.730;9.114;2023-02-21T09:41:04;6.30;99.90
9125;DHT22;4597;48.730;9.114;2023-02-21T09:43:36;6.40;99.90
9125;DHT22;4597;48.730;9.114;2023-02-21T09:46:06;6.60;99.90
9125;DHT22;4597;48.730;9.114;2023-02-21T09:48:34;6.70;99.90
9125;DHT22;4597;48.730;9.114;2023-02-21T09:51:03;6.80;99.90
9125;DHT22;4597;48.730;9.114;2023-02-21T09:53:33;7.00;99.90
9125;DHT22;4597;48.730;9.114;2023-02-21T09:56:04;7.10;99.90
9125;DHT22;4597;48.730;9.114;2023-02-21T09:58:30;7.20;99.90
9125;DHT22;4597;48.730;9.114;2023-02-21T10:01:03;7.40;99.90
9125;DHT22;4597;48.730;9.114;2023-02-21T10:03:44;7.50;99.90
9125;DHT22;4597;48.730;9.114;2023-02-21T10:06:29;7.60;99.90
9125;DHT22;4597;48.730;9.114;2023-02-21T10:09:07;7.80;99.90
9125;DHT22;4597;48.730;9.114;2023-02-21T10:11:58;7.80;99.90
9125;DHT22;4597;48.730;9.114;2023-02-21T10:17:22;7.90;99.90
9125;DHT22;4597;48.730;9.114;2023-02-21T10:19:59;8.10;99.90
9125;DHT22;4597;48.730;9.114;2023-02-21T10:22:32;8.20;99.90
9125;DHT22;4597;48.730;9.114;2023-02-21T10:25:00;8.20;99.90
9125;DHT22;4597;48.730;9.114;2023-02-21T10:27:29;8.30;99.90
9125;DHT22;4597;48.730;9.114;2023-02-21T10:30:04;8.40;99.90
9125;DHT22;4597;48.730;9.114;2023-02-21T10:32:31;8.60;99.90
9125;DHT22;4597;48.730;9.114;2023-02-21T10:34:58;8.70;99.90
9125;DHT22;4597;48.730;9.114;2023-02-21T10:37:31;8.90;99.90
9125;DHT22;4597;48.730;9.114;2023-02-21T10:42:40;9.20;99.90
9125;DHT22;4597;48.730;9.114;2023-02-21T10:45:10;9.20;99.90
9125;DHT22;4597;48.730;9.114;2023-02-21T10:47:52;9.30;99.90
9125;DHT22;4597;48.730;9.114;2023-02-21T10:53:31;9.30;99.90
9125;DHT22;4597;48.730;9.114;2023-02-21T10:58:55;9.40;99.90
9125;DHT22;4597;48.730;9.114;2023-02-21T11:06:44;9.70;99.90
9125;DHT22;4597;48.730;9.114;2023-02-21T11:12:21;9.80;99.90
9125;DHT22;4597;48.730;9.114;2023-02-21T11:17:19;10.00;99.90
9125;DHT22;4597;48.730;9.114;2023-02-21T11:19:51;10.10;99.90
9125;DHT22;4597;48.730;9.114;2023-02-21T11:22:26;10.10;99.90
9125;DHT22;4597;48.730;9.114;2023-02-21T11:27:43;10.40;99.90
9125;DHT22;4597;48.730;9.114;2023-02-21T11:30:17;10.50;99.90
9125;DHT22;4597;48.730;9.114;2023-02-21T11:32:48;10.70;99.90
9125;DHT22;4597;48.730;9.114;2023-02-21T11:35:25;10.80;99.90
9125;DHT22;4597;48.730;9.114;2023-02-21T11:38:02;10.90;99.90
9125;DHT22;4597;48.730;9.114;2023-02-21T11:43:18;10.90;99.90
9125;DHT22;4597;48.730;9.114;2023-02-21T11:48:42;11.10;99.90
9125;DHT22;4597;48.730;9.114;2023-02-21T11:51:32;11.10;99.90
9125;DHT22;4597;48.730;9.114;2023-02-21T11:54:00;11.20;99.90
9125;DHT22;4597;48.730;9.114;2023-02-21T11:57:01;11.30;99.90
9125;DHT22;4597;48.730;9.114;2023-02-21T12:02:18;11.30;99.90
9125;DHT22;4597;48.730;9.114;2023-02-21T12:07:40;11.40;99.90
9125;DHT22;4597;48.730;9.114;2023-02-21T12:10:36;11.50;99.90
9125;DHT22;4597;48.730;9.114;2023-02-21T12:23:59;12.10;99.90
9125;DHT22;4597;48.730;9.114;2023-02-21T12:32:36;12.30;99.90
9125;DHT22;4597;48.730;9.114;2023-02-21T12:37:58;12.30;99.90
9125;DHT22;4597;48.730;9.114;2023-02-21T12:43:37;12.60;99.90
9125;DHT22;4597;48.730;9.114;2023-02-21T12:46:24;12.70;99.90
9125;DHT22;4597;48.730;9.114;2023-02-21T12:48:58;12.70;99.90
9125;DHT22;4597;48.730;9.114;2023-02-21T12:51:57;12.90;99.90
9125;DHT22;4597;48.730;9.114;2023-02-21T12:54:35;13.00;99.90
9125;DHT22;4597;48.730;9.114;2023-02-21T12:57:08;13.20;99.90
9125;DHT22;4597;48.730;9.114;2023-02-21T13:02:33;13.30;99.90
9125;DHT22;4597;48.730;9.114;2023-02-21T13:05:06;13.40;99.90
9125;DHT22;4597;48.730;9.114;2023-02-21T13:07:55;13.50;99.90
9125;DHT22;4597;48.730;9.114;2023-02-21T13:10:30;13.60;99.90
9125;DHT22;4597;48.730;9.114;2023-02-21T13:13:06;13.80;99.90
9125;DHT22;4597;48.730;9.114;2023-02-21T13:15:34;13.90;99.90
9125;DHT22;4597;48.730;9.114;2023-02-21T13:18:06;14.10;99.90
9125;DHT22;4597;48.730;9.114;2023-02-21T13:20:38;14.20;99.90
9125;DHT22;4597;48.730;9.114;2023-02-21T13:29:12;14.80;99.90
9125;DHT22;4597;48.730;9.114;2023-02-21T13:31:41;14.90;97.60
9125;DHT22;4597;48.730;9.114;2023-02-21T13:34:09;15.10;95.50
9125;DHT22;4597;48.730;9.114;2023-02-21T13:39:12;15.50;95.50
9125;DHT22;4597;48.730;9.114;2023-02-21T13:41:54;15.70;94.40
9125;DHT22;4597;48.730;9.114;2023-02-21T13:44:33;16.00;93.70
9125;DHT22;4597;48.730;9.114;2023-02-21T13:49:43;16.30;90.50
9125;DHT22;4597;48.730;9.114;2023-02-21T14:10:54;17.20;75.10
9125;DHT22;4597;48.730;9.114;2023-02-21T14:13:26;17.20;76.60
9125;DHT22;4597;48.730;9.114;2023-02-21T14:18:48;17.70;74.80
9125;DHT22;4597;48.730;9.114;2023-02-21T14:23:59;18.00;68.80
9125;DHT22;4597;48.730;9.114;2023-02-21T14:39:51;18.80;60.40
9125;DHT22;4597;48.730;9.114;2023-02-21T14:54:29;19.30;55.70
9125;DHT22;4597;48.730;9.114;2023-02-21T14:57:20;19.50;56.90
9125;DHT22;4597;48.730;9.114;2023-02-21T15:02:51;19.80;53.40
9125;DHT22;4597;48.730;9.114;2023-02-21T15:08:20;20.10;52.70
9125;DHT22;4597;48.730;9.114;2023-02-21T15:10:49;20.30;52.20
9125;DHT22;4597;48.730;9.114;2023-02-21T15:13:21;20.40;50.70
9125;DHT22;4597;48.730;9.114;2023-02-21T15:15:47;20.70;50.90
9125;DHT22;4597;48.730;9.114;2023-02-21T15:23:45;21.40;48.00
9125;DHT22;4597;48.730;9.114;2023-02-21T15:28:46;21.30;45.20
9125;DHT22;4597;48.730;9.114;2023-02-21T15:31:26;21.30;46.60
9125;DHT22;4597;48.730;9.114;2023-02-21T15:33:52;21.40;46.80
9125;DHT22;4597;48.730;9.114;2023-02-21T15:36:21;21.50;47.50
9125;DHT22;4597;48.730;9.114;2023-02-21T15:38:52;21.60;45.50
9125;DHT22;4597;48.730;9.114;2023-02-21T15:46:44;21.80;43.90
9125;DHT22;4597;48.730;9.114;2023-02-21T15:49:24;21.70;43.10
9125;DHT22;4597;48.730;9.114;2023-02-21T15:51:50;21.50;44.20
9125;DHT22;4597;48.730;9.114;2023-02-21T15:56:41;21.50;44.20
9125;DHT22;4597;48.730;9.114;2023-02-21T15:59:19;21.40;44.20
9125;DHT22;4597;48.730;9.114;2023-02-21T16:02:04;21.30;45.50
9125;DHT22;4597;48.730;9.114;2023-02-21T16:04:35;21.40;45.30
9125;DHT22;4597;48.730;9.114;2023-02-21T16:07:01;21.50;45.20
9125;DHT22;4597;48.730;9.114;2023-02-21T16:09:29;21.30;44.10
9125;DHT22;4597;48.730;9.114;2023-02-21T16:19:39;19.40;48.80
9125;DHT22;4597;48.730;9.114;2023-02-21T16:22:28;18.90;50.50
9125;DHT22;4597;48.730;9.114;2023-02-21T16:27:38;18.10;53.80
9125;DHT22;4597;48.730;9.114;2023-02-21T16:30:06;17.60;53.30
9125;DHT22;4597;48.730;9.114;2023-02-21T16:32:32;17.50;54.20
9125;DHT22;4597;48.730;9.114;2023-02-21T16:35:00;17.10;54.10
9125;DHT22;4597;48.730;9.114;2023-02-21T16:37:26;16.90;55.20
9125;DHT22;4597;48.730;9.114;2023-02-21T16:39:52;16.60;55.20
9125;DHT22;4597;48.730;9.114;2023-02-21T16:42:18;16.20;56.20
9125;DHT22;4597;48.730;9.114;2023-02-21T16:44:44;15.90;57.00
9125;DHT22;4597;48.730;9.114;2023-02-21T16:47:14;15.60;58.50
9125;DHT22;4597;48.730;9.114;2023-02-21T16:49:40;15.30;59.50
9125;DHT22;4597;48.730;9.114;2023-02-21T16:52:11;15.10;61.00
9125;DHT22;4597;48.730;9.114;2023-02-21T16:54:37;14.90;61.70
9125;DHT22;4597;48.730;9.114;2023-02-21T16:57:03;14.60;62.90
9125;DHT22;4597;48.730;9.114;2023-02-21T16:59:29;14.40;64.40
9125;DHT22;4597;48.730;9.114;2023-02-21T17:01:54;14.30;66.20
9125;DHT22;4597;48.730;9.114;2023-02-21T17:04:22;14.10;67.70
9125;DHT22;4597;48.730;9.114;2023-02-21T17:06:54;13.80;69.80
9125;DHT22;4597;48.730;9.114;2023-02-21T17:09:22;13.60;72.30
9125;DHT22;4597;48.730;9.114;2023-02-21T17:11:48;13.40;75.00
9125;DHT22;4597;48.730;9.114;2023-02-21T17:14:13;13.20;78.30
9125;DHT22;4597;48.730;9.114;2023-02-21T17:16:39;13.00;81.20
9125;DHT22;4597;48.730;9.114;2023-02-21T17:19:10;12.80;84.30
9125;DHT22;4597;48.730;9.114;2023-02-21T17:21:37;12.60;87.30
9125;DHT22;4597;48.730;9.114;2023-02-21T17:24:02;12.70;90.10
9125;DHT22;4597;48.730;9.114;2023-02-21T17:26:28;12.50;90.60
9125;DHT22;4597;48.730;9.114;2023-02-21T17:28:53;12.40;92.00
9125;DHT22;4597;48.730;9.114;2023-02-21T17:31:19;12.50;93.70
9125;DHT22;4597;48.730;9.114;2023-02-21T17:33:44;12.40;94.40
9125;DHT22;4597;48.730;9.114;2023-02-21T17:36:16;12.40;95.40
9125;DHT22;4597;48.730;9.114;2023-02-21T17:38:41;12.30;95.80
9125;DHT22;4597;48.730;9.114;2023-02-21T17:41:07;12.30;97.00
9125;DHT22;4597;48.730;9.114;2023-02-21T17:43:33;12.20;97.50
9125;DHT22;4597;48.730;9.114;2023-02-21T17:45:58;12.10;98.20
9125;DHT22;4597;48.730;9.114;2023-02-21T17:48:24;12.10;99.00
9125;DHT22;4597;48.730;9.114;2023-02-21T17:50:49;12.00;99.80
9125;DHT22;4597;48.730;9.114;2023-02-21T17:53:15;11.90;99.90
9125;DHT22;4597;48.730;9.114;2023-02-21T17:55:40;11.80;99.90
9125;DHT22;4597;48.730;9.114;2023-02-21T17:58:06;11.70;99.90
9125;DHT22;4597;48.730;9.114;2023-02-21T18:00:32;11.80;99.90
9125;DHT22;4597;48.730;9.114;2023-02-21T18:02:59;11.80;99.90
9125;DHT22;4597;48.730;9.114;2023-02-21T18:05:29;11.70;99.90
9125;DHT22;4597;48.730;9.114;2023-02-21T18:07:55;11.60;99.90
9125;DHT22;4597;48.730;9.114;2023-02-21T18:10:23;11.40;99.90
9125;DHT22;4597;48.730;9.114;2023-02-21T18:12:48;11.20;99.90
9125;DHT22;4597;48.730;9.114;2023-02-21T18:15:15;11.10;99.90
9125;DHT22;4597;48.730;9.114;2023-02-21T18:17:40;11.00;99.90
9125;DHT22;4597;48.730;9.114;2023-02-21T18:20:08;11.00;99.90
9125;DHT22;4597;48.730;9.114;2023-02-21T18:22:34;10.90;99.90
9125;DHT22;4597;48.730;9.114;2023-02-21T18:25:00;11.00;99.90
9125;DHT22;4597;48.730;9.114;2023-02-21T18:27:25;10.90;99.90
9125;DHT22;4597;48.730;9.114;2023-02-21T18:29:51;11.00;99.90
9125;DHT22;4597;48.730;9.114;2023-02-21T18:32:21;10.90;99.90
9125;DHT22;4597;48.730;9.114;2023-02-21T18:34:46;10.70;99.90
9125;DHT22;4597;48.730;9.114;2023-02-21T18:37:12;10.50;99.90
9125;DHT22;4597;48.730;9.114;2023-02-21T18:39:37;10.40;99.90
9125;DHT22;4597;48.730;9.114;2023-02-21T18:42:03;10.30;99.90
9125;DHT22;4597;48.730;9.114;2023-02-21T18:44:30;10.30;99.90
9125;DHT22;4597;48.730;9.114;2023-02-21T18:46:55;10.30;99.90
9125;DHT22;4597;48.730;9.114;2023-02-21T18:49:23;10.20;99.90
9125;DHT22;4597;48.730;9.114;2023-02-21T18:51:48;10.10;99.90
9125;DHT22;4597;48.730;9.114;2023-02-21T18:54:15;10.00;99.90
9125;DHT22;4597;48.730;9.114;2023-02-21T18:56:51;9.90;99.90
9125;DHT22;4597;48.730;9.114;2023-02-21T18:59:18;9.90;99.90
9125;DHT22;4597;48.730;9.114;2023-02-21T19:01:51;9.90;99.90
9125;DHT22;4597;48.730;9.114;2023-02-21T19:04:17;9.80;99.90
9125;DHT22;4597;48.730;9.114;2023-02-21T19:06:44;9.80;99.90
9125;DHT22;4597;48.730;9.114;2023-02-21T19:09:10;9.60;99.90
9125;DHT22;4597;48.730;9.114;2023-02-21T19:11:36;9.50;99.90
9125;DHT22;4597;48.730;9.114;2023-02-21T19:14:02;9.50;99.90
9125;DHT22;4597;48.730;9.114;2023-02-21T19:16:28;9.50;99.90
9125;DHT22;4597;48.730;9.114;2023-02-21T19:18:57;9.40;99.90
9125;DHT22;4597;48.730;9.114;2023-02-21T19:21:24;9.30;99.90
9125;DHT22;4597;48.730;9.114;2023-02-21T19:23:50;9.20;99.90
9125;DHT22;4597;48.730;9.114;2023-02-21T19:26:16;9.20;99.90